Esler Regional Airport Alexandria US
ICAO: KESF
IATA: ESF
Category: Medium
Scheduled Services: No

Elevation: 112 ft
TransAlt. 18000 ft.

Airport Communications:
POLK APP/DEP:132.05
CTAF/UNICOM:122.8
ARNG OPS:141.45
DE RIDDER RDO:122.55

KESF Zoom In..

Runways:

(A) RW 09 length 5999 ft width 150 ft
---- / hdg 90

(B) RW 14 length 5601 ft width 150 ft
---- / hdg 144

(C) RW 27 length 5999 ft width 150 ft
ILS 111.50 / hdg 270

(D) RW 32 length 5601 ft width 150 ft
---- / hdg 324

Location; KESF
Day. 19 / Time. 19.53 Zulu
* Altimeter: 29.90
* Temperature: 35° c. 95°f.
* Wind from: 250° Speed 05 kn.
Dewpoint: 23° c.
Visibility: 10 Statute Miles.
Clouds: Clear (automated report).

KESF 191953Z AUTO 25005KT 10SM CLR 35/23 A2990 RMK AO2 SLP124 T03500228


Wind From 250°
Speed 05 kn.

 
 
jpsmedia.com for Web Design worldairports.se 2018   terms of use